sensor_id;sensor_type;location;lat;lon;timestamp;pressure;altitude;pressure_sealevel;temperature;humidity
46408;BME280;32110;45.724;21.276;2023-03-23T00:01:26;100508.91;;;7.44;nan
46408;BME280;32110;45.724;21.276;2023-03-23T00:03:55;100509.56;;;7.40;nan
46408;BME280;32110;45.724;21.276;2023-03-23T00:06:25;100510.34;;;7.34;nan
46408;BME280;32110;45.724;21.276;2023-03-23T00:08:51;100516.38;;;7.28;nan
46408;BME280;32110;45.724;21.276;2023-03-23T00:11:23;100511.94;;;7.21;nan
46408;BME280;32110;45.724;21.276;2023-03-23T00:13:52;100511.34;;;7.19;nan
46408;BME280;32110;45.724;21.276;2023-03-23T00:16:22;100504.88;;;7.15;nan
46408;BME280;32110;45.724;21.276;2023-03-23T00:18:54;100493.59;;;7.08;nan
46408;BME280;32110;45.724;21.276;2023-03-23T00:21:21;100496.59;;;6.98;nan
46408;BME280;32110;45.724;21.276;2023-03-23T00:23:58;100479.25;;;6.84;nan
46408;BME280;32110;45.724;21.276;2023-03-23T00:26:24;100511.47;;;6.91;nan
46408;BME280;32110;45.724;21.276;2023-03-23T00:28:53;100510.66;;;6.84;nan
46408;BME280;32110;45.724;21.276;2023-03-23T00:31:19;100518.09;;;6.80;nan
46408;BME280;32110;45.724;21.276;2023-03-23T00:33:44;100505.56;;;6.69;nan
46408;BME280;32110;45.724;21.276;2023-03-23T00:36:11;100515.06;;;6.77;nan
46408;BME280;32110;45.724;21.276;2023-03-23T00:38:38;100519.69;;;6.75;nan
46408;BME280;32110;45.724;21.276;2023-03-23T00:41:04;100515.66;;;6.72;nan
46408;BME280;32110;45.724;21.276;2023-03-23T00:43:31;100505.75;;;6.68;nan
46408;BME280;32110;45.724;21.276;2023-03-23T00:45:57;100504.56;;;6.64;nan
46408;BME280;32110;45.724;21.276;2023-03-23T00:48:26;100505.91;;;6.53;nan
46408;BME280;32110;45.724;21.276;2023-03-23T00:50:52;100501.66;;;6.45;nan
46408;BME280;32110;45.724;21.276;2023-03-23T00:53:18;100506.91;;;6.45;nan
46408;BME280;32110;45.724;21.276;2023-03-23T00:55:45;100509.13;;;6.48;nan
46408;BME280;32110;45.724;21.276;2023-03-23T00:58:11;100503.88;;;6.48;nan
46408;BME280;32110;45.724;21.276;2023-03-23T01:00:38;100509.13;;;6.48;nan
46408;BME280;32110;45.724;21.276;2023-03-23T01:03:04;100502.47;;;6.46;nan
46408;BME280;32110;45.724;21.276;2023-03-23T01:05:34;100499.25;;;6.44;nan
46408;BME280;32110;45.724;21.276;2023-03-23T01:07:59;100500.66;;;6.46;nan
46408;BME280;32110;45.724;21.276;2023-03-23T01:10:25;100501.06;;;6.43;nan
46408;BME280;32110;45.724;21.276;2023-03-23T01:13:00;100468.34;;;6.19;nan
46408;BME280;32110;45.724;21.276;2023-03-23T01:15:26;100493.38;;;6.35;nan
46408;BME280;32110;45.724;21.276;2023-03-23T01:17:52;100498.97;;;6.32;nan
46408;BME280;32110;45.724;21.276;2023-03-23T01:20:17;100492.34;;;6.29;nan
46408;BME280;32110;45.724;21.276;2023-03-23T01:22:43;100491.94;;;6.26;nan
46408;BME280;32110;45.724;21.276;2023-03-23T01:25:10;100496.53;;;6.24;nan
46408;BME280;32110;45.724;21.276;2023-03-23T01:27:36;100486.25;;;6.15;nan
46408;BME280;32110;45.724;21.276;2023-03-23T01:30:03;100495.88;;;6.15;nan
46408;BME280;32110;45.724;21.276;2023-03-23T01:32:29;100489.44;;;6.11;nan
46408;BME280;32110;45.724;21.276;2023-03-23T01:57:03;100503.25;;;5.76;nan
46408;BME280;32110;45.724;21.276;2023-03-23T01:59:31;100503.81;;;5.72;nan
46408;BME280;32110;45.724;21.276;2023-03-23T02:01:58;100505.63;;;5.71;nan
46408;BME280;32110;45.724;21.276;2023-03-23T02:04:26;100508.47;;;5.70;nan
46408;BME280;32110;45.724;21.276;2023-03-23T02:06:52;100505.41;;;5.66;nan
46408;BME280;32110;45.724;21.276;2023-03-23T02:09:19;100505.97;;;5.62;nan
46408;BME280;32110;45.724;21.276;2023-03-23T02:11:46;100486.59;;;5.49;nan
46408;BME280;32110;45.724;21.276;2023-03-23T02:14:15;100502.94;;;5.58;nan
46408;BME280;32110;45.724;21.276;2023-03-23T02:25:32;100505.38;;;5.38;nan
46408;BME280;32110;45.724;21.276;2023-03-23T02:30:43;100515.63;;;5.40;nan
46408;BME280;32110;45.724;21.276;2023-03-23T02:33:40;100514.63;;;5.41;nan
46408;BME280;32110;45.724;21.276;2023-03-23T02:38:56;100513.03;;;5.40;nan
46408;BME280;32110;45.724;21.276;2023-03-23T02:41:28;100510.19;;;5.35;nan
46408;BME280;32110;45.724;21.276;2023-03-23T02:43:56;100508.75;;;5.32;nan
46408;BME280;32110;45.724;21.276;2023-03-23T02:46:23;100499.81;;;5.20;nan
46408;BME280;32110;45.724;21.276;2023-03-23T02:48:50;100497.94;;;5.14;nan
46408;BME280;32110;45.724;21.276;2023-03-23T02:51:18;100510.59;;;5.17;nan
46408;BME280;32110;45.724;21.276;2023-03-23T02:53:46;100525.34;;;5.24;nan
46408;BME280;32110;45.724;21.276;2023-03-23T02:56:14;100521.13;;;5.23;nan
46408;BME280;32110;45.724;21.276;2023-03-23T02:58:41;100524.53;;;5.24;nan
46408;BME280;32110;45.724;21.276;2023-03-23T03:04:06;100518.88;;;5.20;nan
46408;BME280;32110;45.724;21.276;2023-03-23T03:11:46;100523.47;;;5.18;nan
46408;BME280;32110;45.724;21.276;2023-03-23T06:24:51;100596.84;;;6.86;nan
46408;BME280;32110;45.724;21.276;2023-03-23T06:27:17;100598.47;;;6.93;nan
46408;BME280;32110;45.724;21.276;2023-03-23T06:29:42;100604.16;;;7.03;nan
46408;BME280;32110;45.724;21.276;2023-03-23T06:32:11;100613.06;;;7.22;nan
46408;BME280;32110;45.724;21.276;2023-03-23T06:34:38;100617.56;;;7.35;nan
46408;BME280;32110;45.724;21.276;2023-03-23T06:37:05;100617.16;;;7.45;nan
46408;BME280;32110;45.724;21.276;2023-03-23T09:00:25;100700.22;;;14.01;nan
46408;BME280;32110;45.724;21.276;2023-03-23T09:02:53;100633.84;;;13.74;nan
46408;BME280;32110;45.724;21.276;2023-03-23T09:05:21;100644.84;;;13.82;nan
46408;BME280;32110;45.724;21.276;2023-03-23T09:07:51;100649.50;;;13.92;nan
46408;BME280;32110;45.724;21.276;2023-03-23T09:12:43;100642.59;;;14.08;nan
46408;BME280;32110;45.724;21.276;2023-03-23T09:15:12;100649.16;;;14.22;nan
46408;BME280;32110;45.724;21.276;2023-03-23T09:17:40;100604.69;;;14.08;nan
46408;BME280;32110;45.724;21.276;2023-03-23T09:25:01;100644.16;;;14.43;nan
46408;BME280;32110;45.724;21.276;2023-03-23T09:27:27;100638.97;;;14.53;nan
46408;BME280;32110;45.724;21.276;2023-03-23T09:29:53;100636.50;;;14.63;nan
46408;BME280;32110;45.724;21.276;2023-03-23T09:32:18;100636.56;;;14.68;nan
46408;BME280;32110;45.724;21.276;2023-03-23T09:34:45;100635.66;;;14.80;nan
46408;BME280;32110;45.724;21.276;2023-03-23T09:37:10;100644.69;;;14.84;nan
46408;BME280;32110;45.724;21.276;2023-03-23T09:50:07;100660.28;;;15.51;nan
46408;BME280;32110;45.724;21.276;2023-03-23T09:55:11;100622.03;;;15.47;nan
46408;BME280;32110;45.724;21.276;2023-03-23T10:00:29;100611.81;;;15.61;nan
46408;BME280;32110;45.724;21.276;2023-03-23T10:03:18;100607.38;;;15.72;nan
46408;BME280;32110;45.724;21.276;2023-03-23T10:08:22;100616.56;;;15.91;nan
46408;BME280;32110;45.724;21.276;2023-03-23T10:38:37;100602.09;;;16.67;nan
46408;BME280;32110;45.724;21.276;2023-03-23T10:51:12;100652.09;;;17.59;nan
46408;BME280;32110;45.724;21.276;2023-03-23T10:54:00;100588.69;;;17.30;nan
46408;BME280;32110;45.724;21.276;2023-03-23T10:56:38;100582.34;;;17.36;nan
46408;BME280;32110;45.724;21.276;2023-03-23T10:59:39;100569.81;;;17.42;nan
46408;BME280;32110;45.724;21.276;2023-03-23T11:02:02;100575.13;;;17.52;nan
46408;BME280;32110;45.724;21.276;2023-03-23T11:04:37;100575.16;;;17.62;nan
46408;BME280;32110;45.724;21.276;2023-03-23T11:07:03;100568.75;;;17.63;nan
46408;BME280;32110;45.724;21.276;2023-03-23T11:09:37;100577.78;;;17.78;nan
46408;BME280;32110;45.724;21.276;2023-03-23T11:12:03;100565.53;;;17.77;nan
46408;BME280;32110;45.724;21.276;2023-03-23T11:14:34;100574.06;;;17.89;nan
46408;BME280;32110;45.724;21.276;2023-03-23T11:17:04;100579.41;;;17.94;nan
46408;BME280;32110;45.724;21.276;2023-03-23T11:19:36;100566.06;;;17.99;nan
46408;BME280;32110;45.724;21.276;2023-03-23T11:22:12;100572.97;;;18.11;nan
46408;BME280;32110;45.724;21.276;2023-03-23T11:24:47;100550.59;;;18.06;nan
46408;BME280;32110;45.724;21.276;2023-03-23T11:27:15;100562.00;;;18.22;nan
46408;BME280;32110;45.724;21.276;2023-03-23T11:30:15;100560.41;;;18.21;nan
46408;BME280;32110;45.724;21.276;2023-03-23T11:32:45;100548.47;;;18.03;nan
46408;BME280;32110;45.724;21.276;2023-03-23T11:35:20;100563.63;;;18.13;nan
46408;BME280;32110;45.724;21.276;2023-03-23T11:37:57;100552.13;;;18.23;nan
46408;BME280;32110;45.724;21.276;2023-03-23T11:40:29;100547.31;;;18.30;nan
46408;BME280;32110;45.724;21.276;2023-03-23T11:43:08;100543.00;;;18.39;nan
46408;BME280;32110;45.724;21.276;2023-03-23T11:45:38;100539.25;;;18.45;nan
46408;BME280;32110;45.724;21.276;2023-03-23T11:50:59;100525.38;;;18.48;nan
46408;BME280;32110;45.724;21.276;2023-03-23T11:53:34;100535.69;;;18.60;nan
46408;BME280;32110;45.724;21.276;2023-03-23T11:58:34;100520.50;;;18.61;nan
46408;BME280;32110;45.724;21.276;2023-03-23T12:01:05;100524.69;;;18.72;nan
46408;BME280;32110;45.724;21.276;2023-03-23T12:04:03;100526.81;;;18.75;nan
46408;BME280;32110;45.724;21.276;2023-03-23T12:09:28;100516.94;;;18.76;nan
46408;BME280;32110;45.724;21.276;2023-03-23T12:15:33;100516.34;;;18.89;nan
46408;BME280;32110;45.724;21.276;2023-03-23T12:23:59;100508.56;;;18.98;nan
46408;BME280;32110;45.724;21.276;2023-03-23T12:26:35;100502.38;;;19.02;nan
46408;BME280;32110;45.724;21.276;2023-03-23T12:38:16;100488.84;;;19.28;nan
46408;BME280;32110;45.724;21.276;2023-03-23T12:41:00;100486.72;;;19.25;nan
46408;BME280;32110;45.724;21.276;2023-03-23T12:54:56;100470.50;;;19.16;nan
46408;BME280;32110;45.724;21.276;2023-03-23T13:00:19;100464.50;;;19.29;nan
46408;BME280;32110;45.724;21.276;2023-03-23T13:10:49;100446.19;;;19.47;nan
46408;BME280;32110;45.724;21.276;2023-03-23T13:13:21;100432.03;;;19.46;nan
46408;BME280;32110;45.724;21.276;2023-03-23T13:24:33;100359.59;;;19.53;nan
46408;BME280;32110;45.724;21.276;2023-03-23T13:27:01;100377.22;;;19.54;nan
46408;BME280;32110;45.724;21.276;2023-03-23T13:29:26;100398.13;;;19.47;nan
46408;BME280;32110;45.724;21.276;2023-03-23T13:32:04;100347.78;;;19.59;nan
46408;BME280;32110;45.724;21.276;2023-03-23T13:34:32;100365.38;;;19.60;nan
46408;BME280;32110;45.724;21.276;2023-03-23T13:36:58;100396.38;;;19.61;nan
46408;BME280;32110;45.724;21.276;2023-03-23T13:50:05;100338.06;;;19.68;nan
46408;BME280;32110;45.724;21.276;2023-03-23T13:58:08;100339.09;;;19.67;nan
46408;BME280;32110;45.724;21.276;2023-03-23T14:03:39;100347.47;;;19.61;nan
46408;BME280;32110;45.724;21.276;2023-03-23T14:06:07;100362.78;;;19.55;nan
46408;BME280;32110;45.724;21.276;2023-03-23T14:08:41;100346.97;;;19.59;nan
46408;BME280;32110;45.724;21.276;2023-03-23T14:11:33;100345.88;;;19.60;nan
46408;BME280;32110;45.724;21.276;2023-03-23T14:14:07;100364.88;;;19.58;nan
46408;BME280;32110;45.724;21.276;2023-03-23T14:16:43;100324.78;;;19.58;nan
46408;BME280;32110;45.724;21.276;2023-03-23T14:21:55;100367.31;;;19.54;nan
46408;BME280;32110;45.724;21.276;2023-03-23T14:26:52;100339.06;;;19.48;nan
46408;BME280;32110;45.724;21.276;2023-03-23T14:29:20;100316.75;;;19.39;nan
46408;BME280;32110;45.724;21.276;2023-03-23T14:31:52;100299.41;;;19.37;nan
46408;BME280;32110;45.724;21.276;2023-03-23T14:34:20;100350.00;;;19.28;nan
46408;BME280;32110;45.724;21.276;2023-03-23T14:36:46;100346.31;;;19.24;nan
46408;BME280;32110;45.724;21.276;2023-03-23T14:41:38;100347.16;;;19.19;nan
46408;BME280;32110;45.724;21.276;2023-03-23T14:44:06;100323.25;;;19.09;nan
46408;BME280;32110;45.724;21.276;2023-03-23T14:46:32;100317.59;;;19.10;nan
46408;BME280;32110;45.724;21.276;2023-03-23T14:49:02;100354.19;;;19.10;nan
46408;BME280;32110;45.724;21.276;2023-03-23T14:51:29;100396.16;;;19.04;nan
46408;BME280;32110;45.724;21.276;2023-03-23T14:53:54;100357.19;;;19.03;nan
46408;BME280;32110;45.724;21.276;2023-03-23T14:56:22;100343.34;;;19.01;nan
46408;BME280;32110;45.724;21.276;2023-03-23T15:01:26;100347.38;;;18.99;nan
46408;BME280;32110;45.724;21.276;2023-03-23T15:03:56;100344.47;;;18.95;nan
46408;BME280;32110;45.724;21.276;2023-03-23T15:06:27;100337.03;;;18.92;nan
46408;BME280;32110;45.724;21.276;2023-03-23T15:16:22;100344.31;;;18.81;nan
46408;BME280;32110;45.724;21.276;2023-03-23T15:19:04;100348.34;;;18.79;nan
46408;BME280;32110;45.724;21.276;2023-03-23T15:21:35;100348.66;;;18.77;nan
46408;BME280;32110;45.724;21.276;2023-03-23T15:24:02;100341.16;;;18.74;nan
46408;BME280;32110;45.724;21.276;2023-03-23T15:26:40;100338.78;;;18.73;nan
46408;BME280;32110;45.724;21.276;2023-03-23T15:41:27;100356.69;;;18.67;nan
46408;BME280;32110;45.724;21.276;2023-03-23T15:43:54;100354.28;;;18.70;nan
46408;BME280;32110;45.724;21.276;2023-03-23T15:46:24;100360.41;;;18.71;nan
46408;BME280;32110;45.724;21.276;2023-03-23T15:51:22;100329.59;;;18.55;nan
46408;BME280;32110;45.724;21.276;2023-03-23T16:01:11;100373.53;;;18.62;nan
46408;BME280;32110;45.724;21.276;2023-03-23T16:10:56;100413.38;;;18.48;nan
46408;BME280;32110;45.724;21.276;2023-03-23T16:35:15;100426.41;;;18.11;nan
46408;BME280;32110;45.724;21.276;2023-03-23T16:59:34;100441.47;;;17.55;nan
46408;BME280;32110;45.724;21.276;2023-03-23T18:07:34;100450.34;;;15.95;nan
46408;BME280;32110;45.724;21.276;2023-03-23T19:08:21;100455.97;;;14.38;nan
46408;BME280;32110;45.724;21.276;2023-03-23T19:15:39;100413.97;;;14.24;nan
46408;BME280;32110;45.724;21.276;2023-03-23T22:23:11;100496.59;;;9.95;nan
